Campanha, Brazil
Current Conditions -  °F | °C
As of 5:00 AM on Thursday 23 Oct 2014 (Local Time) from SBSJ Reporting Station
Overcast Overcast  
Wind Chill: 66°   Ceiling: 1500
Heat Index: 66°   Visibility: 6mi
Dew Point: 55°   Wind: 8mph
Humidity: 68%   Direction: 120°ESE
Pressure: 30.15"   Gusts: NA
Location:  21.84°S, 45.4°W
Report Text: SBSJ 230700Z 12007KT 9999 BKN015 OVC020 19/13 Q1021
Loading
Personal Weather Stations






























Interactive Weather Map
Tropical Storm Tracking
New forecast layout! Learn more

10-Day Weather Forecast

Advertisements
Track Severe Weather on mobile